sensor_id;sensor_type;location;lat;lon;timestamp;P1;durP1;ratioP1;P2;durP2;ratioP2
18411;SDS011;27097;51.738;19.472;2023-06-10T00:01:38;9.02;;;7.25;;
18411;SDS011;27097;51.738;19.472;2023-06-10T00:04:05;8.90;;;7.55;;
18411;SDS011;27097;51.738;19.472;2023-06-10T00:06:32;11.32;;;7.82;;
18411;SDS011;27097;51.738;19.472;2023-06-10T00:09:01;10.32;;;7.55;;
18411;SDS011;27097;51.738;19.472;2023-06-10T00:11:29;12.35;;;7.40;;
18411;SDS011;27097;51.738;19.472;2023-06-10T00:13:56;10.27;;;7.63;;
18411;SDS011;27097;51.738;19.472;2023-06-10T00:16:23;10.13;;;7.57;;
18411;SDS011;27097;51.738;19.472;2023-06-10T00:18:51;15.85;;;7.38;;
18411;SDS011;27097;51.738;19.472;2023-06-10T00:21:20;13.75;;;7.20;;
18411;SDS011;27097;51.738;19.472;2023-06-10T00:23:49;10.00;;;7.57;;
18411;SDS011;27097;51.738;19.472;2023-06-10T00:26:16;13.75;;;7.75;;
18411;SDS011;27097;51.738;19.472;2023-06-10T00:28:45;12.23;;;8.35;;
18411;SDS011;27097;51.738;19.472;2023-06-10T00:31:12;12.45;;;7.82;;
18411;SDS011;27097;51.738;19.472;2023-06-10T00:33:38;11.25;;;7.80;;
18411;SDS011;27097;51.738;19.472;2023-06-10T00:36:07;11.98;;;7.78;;
18411;SDS011;27097;51.738;19.472;2023-06-10T00:38:33;13.38;;;7.13;;
18411;SDS011;27097;51.738;19.472;2023-06-10T00:41:00;9.82;;;7.35;;
18411;SDS011;27097;51.738;19.472;2023-06-10T00:43:27;11.77;;;7.80;;
18411;SDS011;27097;51.738;19.472;2023-06-10T00:45:54;12.18;;;7.40;;
18411;SDS011;27097;51.738;19.472;2023-06-10T00:48:21;11.27;;;7.78;;
18411;SDS011;27097;51.738;19.472;2023-06-10T00:50:48;9.27;;;7.60;;
18411;SDS011;27097;51.738;19.472;2023-06-10T00:53:17;11.55;;;7.75;;
18411;SDS011;27097;51.738;19.472;2023-06-10T00:55:44;11.10;;;7.60;;
18411;SDS011;27097;51.738;19.472;2023-06-10T00:58:11;10.80;;;7.95;;
18411;SDS011;27097;51.738;19.472;2023-06-10T01:00:38;11.25;;;8.10;;
18411;SDS011;27097;51.738;19.472;2023-06-10T01:03:05;10.77;;;7.43;;
18411;SDS011;27097;51.738;19.472;2023-06-10T01:05:33;9.60;;;7.40;;
18411;SDS011;27097;51.738;19.472;2023-06-10T01:08:01;10.05;;;8.18;;
18411;SDS011;27097;51.738;19.472;2023-06-10T01:10:36;10.35;;;8.18;;
18411;SDS011;27097;51.738;19.472;2023-06-10T01:13:07;12.73;;;8.25;;
18411;SDS011;27097;51.738;19.472;2023-06-10T01:15:38;11.80;;;8.73;;
18411;SDS011;27097;51.738;19.472;2023-06-10T01:18:05;10.10;;;7.82;;
18411;SDS011;27097;51.738;19.472;2023-06-10T01:20:34;12.43;;;8.23;;
18411;SDS011;27097;51.738;19.472;2023-06-10T01:23:06;11.65;;;8.40;;
18411;SDS011;27097;51.738;19.472;2023-06-10T01:25:36;13.68;;;8.50;;
18411;SDS011;27097;51.738;19.472;2023-06-10T01:28:07;12.02;;;8.05;;
18411;SDS011;27097;51.738;19.472;2023-06-10T01:30:40;9.90;;;8.30;;
18411;SDS011;27097;51.738;19.472;2023-06-10T01:33:12;13.00;;;9.05;;
18411;SDS011;27097;51.738;19.472;2023-06-10T01:35:43;11.57;;;8.20;;
18411;SDS011;27097;51.738;19.472;2023-06-10T01:38:12;11.00;;;8.38;;
18411;SDS011;27097;51.738;19.472;2023-06-10T01:40:40;11.25;;;8.80;;
18411;SDS011;27097;51.738;19.472;2023-06-10T01:43:08;11.60;;;8.57;;
18411;SDS011;27097;51.738;19.472;2023-06-10T01:45:35;14.38;;;8.23;;
18411;SDS011;27097;51.738;19.472;2023-06-10T01:48:02;11.20;;;8.15;;
18411;SDS011;27097;51.738;19.472;2023-06-10T01:50:28;11.73;;;8.43;;
18411;SDS011;27097;51.738;19.472;2023-06-10T01:55:24;11.48;;;8.43;;
18411;SDS011;27097;51.738;19.472;2023-06-10T01:57:51;12.63;;;8.20;;
18411;SDS011;27097;51.738;19.472;2023-06-10T02:00:18;10.65;;;8.45;;
18411;SDS011;27097;51.738;19.472;2023-06-10T02:02:45;12.02;;;8.57;;
18411;SDS011;27097;51.738;19.472;2023-06-10T02:05:12;12.30;;;8.35;;
18411;SDS011;27097;51.738;19.472;2023-06-10T02:07:39;11.60;;;7.80;;
18411;SDS011;27097;51.738;19.472;2023-06-10T02:10:06;10.82;;;7.50;;
18411;SDS011;27097;51.738;19.472;2023-06-10T02:12:35;11.88;;;7.97;;
18411;SDS011;27097;51.738;19.472;2023-06-10T02:15:02;11.27;;;8.25;;
18411;SDS011;27097;51.738;19.472;2023-06-10T02:17:29;9.95;;;8.07;;
18411;SDS011;27097;51.738;19.472;2023-06-10T02:19:57;11.23;;;8.07;;
18411;SDS011;27097;51.738;19.472;2023-06-10T02:22:25;11.20;;;8.57;;
18411;SDS011;27097;51.738;19.472;2023-06-10T02:24:51;12.10;;;8.65;;
18411;SDS011;27097;51.738;19.472;2023-06-10T02:27:18;9.52;;;8.15;;
18411;SDS011;27097;51.738;19.472;2023-06-10T02:29:47;11.57;;;8.48;;
18411;SDS011;27097;51.738;19.472;2023-06-10T02:32:13;10.95;;;7.90;;
18411;SDS011;27097;51.738;19.472;2023-06-10T02:34:40;11.18;;;8.15;;
18411;SDS011;27097;51.738;19.472;2023-06-10T02:37:08;10.07;;;7.78;;
18411;SDS011;27097;51.738;19.472;2023-06-10T02:39:35;11.95;;;8.38;;
18411;SDS011;27097;51.738;19.472;2023-06-10T02:42:02;10.98;;;8.23;;
18411;SDS011;27097;51.738;19.472;2023-06-10T02:44:30;9.40;;;7.72;;
18411;SDS011;27097;51.738;19.472;2023-06-10T02:46:58;11.18;;;7.65;;
18411;SDS011;27097;51.738;19.472;2023-06-10T02:49:25;9.70;;;7.45;;
18411;SDS011;27097;51.738;19.472;2023-06-10T02:51:52;8.88;;;7.43;;
18411;SDS011;27097;51.738;19.472;2023-06-10T02:54:21;10.85;;;8.25;;
18411;SDS011;27097;51.738;19.472;2023-06-10T02:56:49;9.13;;;7.63;;
18411;SDS011;27097;51.738;19.472;2023-06-10T02:59:17;12.20;;;7.93;;
18411;SDS011;27097;51.738;19.472;2023-06-10T03:01:45;11.98;;;8.48;;
18411;SDS011;27097;51.738;19.472;2023-06-10T03:04:13;11.63;;;8.18;;
18411;SDS011;27097;51.738;19.472;2023-06-10T03:06:40;10.68;;;8.55;;
18411;SDS011;27097;51.738;19.472;2023-06-10T03:09:07;13.68;;;8.95;;
18411;SDS011;27097;51.738;19.472;2023-06-10T03:11:36;11.65;;;8.90;;
18411;SDS011;27097;51.738;19.472;2023-06-10T03:14:03;11.23;;;8.15;;
18411;SDS011;27097;51.738;19.472;2023-06-10T03:16:30;12.20;;;8.50;;
18411;SDS011;27097;51.738;19.472;2023-06-10T03:18:57;12.32;;;8.73;;
18411;SDS011;27097;51.738;19.472;2023-06-10T03:21:25;12.10;;;9.35;;
18411;SDS011;27097;51.738;19.472;2023-06-10T03:23:52;14.93;;;9.20;;
18411;SDS011;27097;51.738;19.472;2023-06-10T03:26:19;11.25;;;9.27;;
18411;SDS011;27097;51.738;19.472;2023-06-10T03:28:46;12.18;;;9.15;;
18411;SDS011;27097;51.738;19.472;2023-06-10T03:31:13;11.82;;;8.93;;
18411;SDS011;27097;51.738;19.472;2023-06-10T03:33:41;13.35;;;9.88;;
18411;SDS011;27097;51.738;19.472;2023-06-10T03:36:08;13.50;;;9.90;;
18411;SDS011;27097;51.738;19.472;2023-06-10T03:38:37;14.10;;;10.48;;
18411;SDS011;27097;51.738;19.472;2023-06-10T03:41:03;14.93;;;10.25;;
18411;SDS011;27097;51.738;19.472;2023-06-10T03:43:30;13.85;;;10.35;;
18411;SDS011;27097;51.738;19.472;2023-06-10T03:45:57;13.50;;;10.13;;
18411;SDS011;27097;51.738;19.472;2023-06-10T03:48:24;11.93;;;9.95;;
18411;SDS011;27097;51.738;19.472;2023-06-10T03:50:51;14.40;;;10.73;;
18411;SDS011;27097;51.738;19.472;2023-06-10T03:53:18;15.50;;;10.75;;
18411;SDS011;27097;51.738;19.472;2023-06-10T03:55:46;15.55;;;11.13;;
18411;SDS011;27097;51.738;19.472;2023-06-10T03:58:13;15.48;;;10.77;;
18411;SDS011;27097;51.738;19.472;2023-06-10T04:00:40;15.93;;;10.18;;
18411;SDS011;27097;51.738;19.472;2023-06-10T04:03:07;17.02;;;11.93;;
18411;SDS011;27097;51.738;19.472;2023-06-10T04:05:39;14.75;;;10.68;;
18411;SDS011;27097;51.738;19.472;2023-06-10T04:08:07;12.50;;;10.15;;
18411;SDS011;27097;51.738;19.472;2023-06-10T04:10:34;14.75;;;11.02;;
18411;SDS011;27097;51.738;19.472;2023-06-10T04:13:03;14.23;;;11.00;;
18411;SDS011;27097;51.738;19.472;2023-06-10T04:15:30;13.65;;;10.00;;
18411;SDS011;27097;51.738;19.472;2023-06-10T04:17:58;13.80;;;10.48;;
18411;SDS011;27097;51.738;19.472;2023-06-10T04:20:26;12.15;;;9.65;;
18411;SDS011;27097;51.738;19.472;2023-06-10T04:22:53;13.63;;;9.63;;
18411;SDS011;27097;51.738;19.472;2023-06-10T04:25:20;13.38;;;9.70;;
18411;SDS011;27097;51.738;19.472;2023-06-10T04:27:47;11.70;;;9.32;;
18411;SDS011;27097;51.738;19.472;2023-06-10T04:30:15;13.30;;;9.85;;
18411;SDS011;27097;51.738;19.472;2023-06-10T04:32:42;12.70;;;9.43;;
18411;SDS011;27097;51.738;19.472;2023-06-10T04:35:11;12.25;;;8.93;;
18411;SDS011;27097;51.738;19.472;2023-06-10T04:37:39;14.75;;;8.85;;
18411;SDS011;27097;51.738;19.472;2023-06-10T04:40:06;12.20;;;8.55;;
18411;SDS011;27097;51.738;19.472;2023-06-10T04:42:33;13.30;;;8.20;;
18411;SDS011;27097;51.738;19.472;2023-06-10T04:45:00;12.18;;;8.23;;
18411;SDS011;27097;51.738;19.472;2023-06-10T04:47:30;12.10;;;8.50;;
18411;SDS011;27097;51.738;19.472;2023-06-10T04:49:58;11.25;;;8.32;;
18411;SDS011;27097;51.738;19.472;2023-06-10T04:52:25;10.25;;;7.35;;
18411;SDS011;27097;51.738;19.472;2023-06-10T04:54:52;11.15;;;7.35;;
18411;SDS011;27097;51.738;19.472;2023-06-10T04:57:19;11.95;;;7.43;;
18411;SDS011;27097;51.738;19.472;2023-06-10T04:59:46;10.55;;;7.70;;
18411;SDS011;27097;51.738;19.472;2023-06-10T05:02:13;13.15;;;7.50;;
18411;SDS011;27097;51.738;19.472;2023-06-10T05:04:41;10.93;;;7.22;;
18411;SDS011;27097;51.738;19.472;2023-06-10T05:07:08;10.65;;;7.35;;
18411;SDS011;27097;51.738;19.472;2023-06-10T05:09:35;15.13;;;7.38;;
18411;SDS011;27097;51.738;19.472;2023-06-10T05:12:02;13.30;;;7.22;;
18411;SDS011;27097;51.738;19.472;2023-06-10T05:14:29;10.70;;;6.93;;
18411;SDS011;27097;51.738;19.472;2023-06-10T05:16:56;12.55;;;7.05;;
18411;SDS011;27097;51.738;19.472;2023-06-10T05:19:23;12.07;;;6.50;;
18411;SDS011;27097;51.738;19.472;2023-06-10T05:21:51;10.82;;;6.93;;
18411;SDS011;27097;51.738;19.472;2023-06-10T05:24:18;12.50;;;7.00;;
18411;SDS011;27097;51.738;19.472;2023-06-10T05:26:46;9.88;;;6.15;;
18411;SDS011;27097;51.738;19.472;2023-06-10T05:29:13;9.80;;;6.60;;
18411;SDS011;27097;51.738;19.472;2023-06-10T05:31:41;8.95;;;6.18;;
18411;SDS011;27097;51.738;19.472;2023-06-10T05:34:08;11.02;;;6.35;;
18411;SDS011;27097;51.738;19.472;2023-06-10T05:36:35;8.35;;;6.05;;
18411;SDS011;27097;51.738;19.472;2023-06-10T05:39:03;8.80;;;6.22;;
18411;SDS011;27097;51.738;19.472;2023-06-10T05:41:30;11.98;;;6.40;;
18411;SDS011;27097;51.738;19.472;2023-06-10T05:43:56;11.30;;;5.88;;
18411;SDS011;27097;51.738;19.472;2023-06-10T05:46:23;9.60;;;6.30;;
18411;SDS011;27097;51.738;19.472;2023-06-10T05:48:50;9.73;;;5.90;;
18411;SDS011;27097;51.738;19.472;2023-06-10T05:51:17;9.98;;;5.85;;
18411;SDS011;27097;51.738;19.472;2023-06-10T05:53:44;12.27;;;6.32;;
18411;SDS011;27097;51.738;19.472;2023-06-10T05:56:12;7.88;;;5.43;;
18411;SDS011;27097;51.738;19.472;2023-06-10T05:58:39;11.52;;;5.40;;
18411;SDS011;27097;51.738;19.472;2023-06-10T06:01:06;7.40;;;5.32;;
18411;SDS011;27097;51.738;19.472;2023-06-10T06:03:33;8.82;;;5.55;;
18411;SDS011;27097;51.738;19.472;2023-06-10T06:06:00;7.93;;;5.82;;
18411;SDS011;27097;51.738;19.472;2023-06-10T06:08:29;12.27;;;5.82;;
18411;SDS011;27097;51.738;19.472;2023-06-10T06:10:55;9.38;;;5.55;;
18411;SDS011;27097;51.738;19.472;2023-06-10T06:13:24;8.77;;;5.20;;
18411;SDS011;27097;51.738;19.472;2023-06-10T06:15:50;10.40;;;5.57;;
18411;SDS011;27097;51.738;19.472;2023-06-10T06:18:17;9.63;;;5.10;;
18411;SDS011;27097;51.738;19.472;2023-06-10T06:20:44;14.20;;;5.40;;
18411;SDS011;27097;51.738;19.472;2023-06-10T06:23:11;13.27;;;5.32;;
18411;SDS011;27097;51.738;19.472;2023-06-10T06:25:38;12.45;;;5.40;;
18411;SDS011;27097;51.738;19.472;2023-06-10T06:28:05;11.45;;;5.47;;
18411;SDS011;27097;51.738;19.472;2023-06-10T06:30:35;11.80;;;5.68;;
18411;SDS011;27097;51.738;19.472;2023-06-10T06:33:02;10.43;;;5.45;;
18411;SDS011;27097;51.738;19.472;2023-06-10T06:35:30;11.50;;;5.35;;
18411;SDS011;27097;51.738;19.472;2023-06-10T06:37:57;12.18;;;5.70;;
18411;SDS011;27097;51.738;19.472;2023-06-10T06:40:24;11.15;;;5.53;;
18411;SDS011;27097;51.738;19.472;2023-06-10T06:42:50;10.25;;;5.18;;
18411;SDS011;27097;51.738;19.472;2023-06-10T06:45:17;10.38;;;5.55;;
18411;SDS011;27097;51.738;19.472;2023-06-10T06:47:46;12.48;;;5.43;;
18411;SDS011;27097;51.738;19.472;2023-06-10T06:50:13;16.42;;;6.00;;
18411;SDS011;27097;51.738;19.472;2023-06-10T06:52:40;18.92;;;6.65;;
18411;SDS011;27097;51.738;19.472;2023-06-10T06:55:07;14.93;;;6.38;;
18411;SDS011;27097;51.738;19.472;2023-06-10T06:57:34;9.00;;;5.70;;
18411;SDS011;27097;51.738;19.472;2023-06-10T07:00:01;13.70;;;5.70;;
18411;SDS011;27097;51.738;19.472;2023-06-10T07:02:29;12.27;;;5.82;;
18411;SDS011;27097;51.738;19.472;2023-06-10T07:04:58;7.40;;;5.55;;
18411;SDS011;27097;51.738;19.472;2023-06-10T07:07:25;10.85;;;5.38;;
18411;SDS011;27097;51.738;19.472;2023-06-10T07:09:52;11.85;;;5.40;;
18411;SDS011;27097;51.738;19.472;2023-06-10T07:12:24;12.45;;;5.25;;
18411;SDS011;27097;51.738;19.472;2023-06-10T07:14:50;12.45;;;5.35;;
18411;SDS011;27097;51.738;19.472;2023-06-10T07:17:17;9.88;;;5.32;;
18411;SDS011;27097;51.738;19.472;2023-06-10T07:19:44;12.27;;;5.43;;
18411;SDS011;27097;51.738;19.472;2023-06-10T07:22:13;21.67;;;5.75;;
18411;SDS011;27097;51.738;19.472;2023-06-10T07:24:40;14.38;;;5.90;;
18411;SDS011;27097;51.738;19.472;2023-06-10T07:27:07;14.20;;;5.40;;
18411;SDS011;27097;51.738;19.472;2023-06-10T07:29:35;10.23;;;5.72;;
18411;SDS011;27097;51.738;19.472;2023-06-10T07:32:02;17.73;;;6.07;;
18411;SDS011;27097;51.738;19.472;2023-06-10T07:34:29;14.48;;;5.63;;
18411;SDS011;27097;51.738;19.472;2023-06-10T07:36:56;20.38;;;5.30;;
18411;SDS011;27097;51.738;19.472;2023-06-10T07:39:24;19.45;;;5.90;;
18411;SDS011;27097;51.738;19.472;2023-06-10T07:41:51;14.98;;;5.05;;
18411;SDS011;27097;51.738;19.472;2023-06-10T07:44:20;15.52;;;5.15;;
18411;SDS011;27097;51.738;19.472;2023-06-10T07:46:47;15.07;;;5.53;;
18411;SDS011;27097;51.738;19.472;2023-06-10T07:49:14;16.35;;;5.53;;
18411;SDS011;27097;51.738;19.472;2023-06-10T07:51:41;15.82;;;5.50;;
18411;SDS011;27097;51.738;19.472;2023-06-10T07:54:08;14.73;;;5.30;;
18411;SDS011;27097;51.738;19.472;2023-06-10T07:56:38;24.17;;;5.85;;
18411;SDS011;27097;51.738;19.472;2023-06-10T07:59:05;23.55;;;5.55;;
18411;SDS011;27097;51.738;19.472;2023-06-10T08:01:32;11.43;;;5.55;;
18411;SDS011;27097;51.738;19.472;2023-06-10T08:04:00;17.25;;;4.93;;
18411;SDS011;27097;51.738;19.472;2023-06-10T08:06:27;18.55;;;5.70;;
18411;SDS011;27097;51.738;19.472;2023-06-10T08:08:54;22.13;;;6.35;;
18411;SDS011;27097;51.738;19.472;2023-06-10T08:11:21;23.17;;;6.63;;
18411;SDS011;27097;51.738;19.472;2023-06-10T08:13:49;19.05;;;6.32;;
18411;SDS011;27097;51.738;19.472;2023-06-10T08:16:16;22.50;;;6.15;;
18411;SDS011;27097;51.738;19.472;2023-06-10T08:18:43;25.70;;;6.88;;
18411;SDS011;27097;51.738;19.472;2023-06-10T08:21:10;15.23;;;5.60;;
18411;SDS011;27097;51.738;19.472;2023-06-10T08:23:37;21.65;;;5.88;;
18411;SDS011;27097;51.738;19.472;2023-06-10T08:26:04;15.98;;;6.03;;
18411;SDS011;27097;51.738;19.472;2023-06-10T08:28:30;17.17;;;5.82;;
18411;SDS011;27097;51.738;19.472;2023-06-10T08:30:59;13.63;;;5.93;;
18411;SDS011;27097;51.738;19.472;2023-06-10T08:33:26;18.50;;;6.25;;
18411;SDS011;27097;51.738;19.472;2023-06-10T08:35:52;16.13;;;5.95;;
18411;SDS011;27097;51.738;19.472;2023-06-10T08:38:19;18.75;;;5.35;;
18411;SDS011;27097;51.738;19.472;2023-06-10T08:40:46;16.42;;;5.57;;
18411;SDS011;27097;51.738;19.472;2023-06-10T08:43:17;18.58;;;6.13;;
18411;SDS011;27097;51.738;19.472;2023-06-10T08:45:47;20.00;;;5.85;;
18411;SDS011;27097;51.738;19.472;2023-06-10T08:48:17;13.18;;;5.35;;
18411;SDS011;27097;51.738;19.472;2023-06-10T08:50:46;23.15;;;5.78;;
18411;SDS011;27097;51.738;19.472;2023-06-10T08:53:17;27.13;;;5.95;;
18411;SDS011;27097;51.738;19.472;2023-06-10T08:55:46;17.02;;;5.40;;
18411;SDS011;27097;51.738;19.472;2023-06-10T08:58:17;24.35;;;5.60;;
18411;SDS011;27097;51.738;19.472;2023-06-10T09:00:44;13.70;;;5.75;;
18411;SDS011;27097;51.738;19.472;2023-06-10T09:03:12;20.17;;;6.15;;
18411;SDS011;27097;51.738;19.472;2023-06-10T09:05:40;20.15;;;5.93;;
18411;SDS011;27097;51.738;19.472;2023-06-10T09:08:08;14.48;;;5.68;;
18411;SDS011;27097;51.738;19.472;2023-06-10T09:10:35;16.52;;;5.88;;
18411;SDS011;27097;51.738;19.472;2023-06-10T09:13:02;12.73;;;5.15;;
18411;SDS011;27097;51.738;19.472;2023-06-10T09:15:29;17.63;;;5.43;;
18411;SDS011;27097;51.738;19.472;2023-06-10T09:17:56;14.77;;;5.55;;
18411;SDS011;27097;51.738;19.472;2023-06-10T09:20:24;12.63;;;5.18;;
18411;SDS011;27097;51.738;19.472;2023-06-10T09:22:52;13.25;;;5.53;;
18411;SDS011;27097;51.738;19.472;2023-06-10T09:25:20;11.40;;;4.90;;
18411;SDS011;27097;51.738;19.472;2023-06-10T09:28:01;16.88;;;5.25;;
18411;SDS011;27097;51.738;19.472;2023-06-10T09:30:29;14.27;;;5.38;;
18411;SDS011;27097;51.738;19.472;2023-06-10T09:32:58;9.68;;;4.68;;
18411;SDS011;27097;51.738;19.472;2023-06-10T09:35:26;12.43;;;5.22;;
18411;SDS011;27097;51.738;19.472;2023-06-10T09:37:55;9.43;;;5.28;;
18411;SDS011;27097;51.738;19.472;2023-06-10T09:40:24;14.98;;;4.72;;
18411;SDS011;27097;51.738;19.472;2023-06-10T09:42:52;16.33;;;5.55;;
18411;SDS011;27097;51.738;19.472;2023-06-10T09:45:21;14.02;;;4.95;;
18411;SDS011;27097;51.738;19.472;2023-06-10T09:47:51;8.68;;;4.93;;
18411;SDS011;27097;51.738;19.472;2023-06-10T09:50:18;10.48;;;4.82;;
18411;SDS011;27097;51.738;19.472;2023-06-10T09:52:45;14.93;;;5.13;;
18411;SDS011;27097;51.738;19.472;2023-06-10T09:55:14;12.32;;;4.82;;
18411;SDS011;27097;51.738;19.472;2023-06-10T09:57:41;11.95;;;4.78;;
18411;SDS011;27097;51.738;19.472;2023-06-10T10:00:11;12.95;;;4.90;;
18411;SDS011;27097;51.738;19.472;2023-06-10T10:02:45;13.25;;;4.57;;
18411;SDS011;27097;51.738;19.472;2023-06-10T10:05:13;9.65;;;4.22;;
18411;SDS011;27097;51.738;19.472;2023-06-10T10:07:41;8.23;;;4.57;;
18411;SDS011;27097;51.738;19.472;2023-06-10T10:10:08;10.48;;;4.28;;
18411;SDS011;27097;51.738;19.472;2023-06-10T10:12:39;9.25;;;4.43;;
18411;SDS011;27097;51.738;19.472;2023-06-10T10:15:06;9.30;;;4.50;;
18411;SDS011;27097;51.738;19.472;2023-06-10T10:17:35;13.18;;;4.63;;
18411;SDS011;27097;51.738;19.472;2023-06-10T10:20:06;9.15;;;4.57;;
18411;SDS011;27097;51.738;19.472;2023-06-10T10:22:39;4.53;;;3.60;;
18411;SDS011;27097;51.738;19.472;2023-06-10T10:25:09;8.70;;;4.15;;
18411;SDS011;27097;51.738;19.472;2023-06-10T10:27:41;9.00;;;4.40;;
18411;SDS011;27097;51.738;19.472;2023-06-10T10:30:11;8.50;;;3.88;;
18411;SDS011;27097;51.738;19.472;2023-06-10T10:32:43;8.35;;;3.95;;
18411;SDS011;27097;51.738;19.472;2023-06-10T10:35:22;7.45;;;4.00;;
18411;SDS011;27097;51.738;19.472;2023-06-10T10:37:51;7.97;;;4.13;;
18411;SDS011;27097;51.738;19.472;2023-06-10T10:40:19;7.25;;;4.03;;
18411;SDS011;27097;51.738;19.472;2023-06-10T10:42:48;9.20;;;4.07;;
18411;SDS011;27097;51.738;19.472;2023-06-10T10:45:16;5.93;;;3.78;;
18411;SDS011;27097;51.738;19.472;2023-06-10T10:47:44;7.40;;;3.72;;
18411;SDS011;27097;51.738;19.472;2023-06-10T10:50:15;9.45;;;3.88;;
18411;SDS011;27097;51.738;19.472;2023-06-10T10:52:48;6.90;;;3.70;;
18411;SDS011;27097;51.738;19.472;2023-06-10T10:55:18;7.90;;;3.70;;
18411;SDS011;27097;51.738;19.472;2023-06-10T10:57:54;5.63;;;3.67;;
18411;SDS011;27097;51.738;19.472;2023-06-10T11:00:29;7.80;;;3.88;;
18411;SDS011;27097;51.738;19.472;2023-06-10T11:03:00;8.27;;;3.60;;
18411;SDS011;27097;51.738;19.472;2023-06-10T11:05:35;5.93;;;3.97;;
18411;SDS011;27097;51.738;19.472;2023-06-10T11:08:04;7.05;;;3.92;;
18411;SDS011;27097;51.738;19.472;2023-06-10T11:10:33;7.25;;;3.85;;
18411;SDS011;27097;51.738;19.472;2023-06-10T11:13:02;5.50;;;3.40;;
18411;SDS011;27097;51.738;19.472;2023-06-10T11:15:32;9.02;;;3.13;;
18411;SDS011;27097;51.738;19.472;2023-06-10T11:18:11;5.78;;;3.60;;
18411;SDS011;27097;51.738;19.472;2023-06-10T11:20:45;6.03;;;3.67;;
18411;SDS011;27097;51.738;19.472;2023-06-10T11:26:10;6.97;;;3.45;;
18411;SDS011;27097;51.738;19.472;2023-06-10T11:29:04;6.03;;;3.70;;
18411;SDS011;27097;51.738;19.472;2023-06-10T11:31:38;5.25;;;3.60;;
18411;SDS011;27097;51.738;19.472;2023-06-10T11:34:12;4.30;;;3.20;;
18411;SDS011;27097;51.738;19.472;2023-06-10T11:36:40;4.97;;;3.15;;
18411;SDS011;27097;51.738;19.472;2023-06-10T11:39:10;5.50;;;3.53;;
18411;SDS011;27097;51.738;19.472;2023-06-10T11:41:37;6.40;;;3.38;;
18411;SDS011;27097;51.738;19.472;2023-06-10T11:44:09;5.53;;;3.40;;
18411;SDS011;27097;51.738;19.472;2023-06-10T11:46:36;5.93;;;3.50;;
18411;SDS011;27097;51.738;19.472;2023-06-10T11:49:04;7.60;;;3.35;;
18411;SDS011;27097;51.738;19.472;2023-06-10T11:51:33;4.80;;;3.30;;
18411;SDS011;27097;51.738;19.472;2023-06-10T11:54:01;6.28;;;3.53;;
18411;SDS011;27097;51.738;19.472;2023-06-10T11:56:29;6.88;;;3.38;;
18411;SDS011;27097;51.738;19.472;2023-06-10T11:58:57;7.22;;;3.70;;
18411;SDS011;27097;51.738;19.472;2023-06-10T12:01:30;4.07;;;3.10;;
18411;SDS011;27097;51.738;19.472;2023-06-10T12:03:59;4.85;;;3.47;;
18411;SDS011;27097;51.738;19.472;2023-06-10T12:06:27;4.63;;;3.42;;
18411;SDS011;27097;51.738;19.472;2023-06-10T12:09:04;8.20;;;3.08;;
18411;SDS011;27097;51.738;19.472;2023-06-10T12:11:31;4.22;;;2.88;;
18411;SDS011;27097;51.738;19.472;2023-06-10T12:13:58;5.18;;;3.30;;
18411;SDS011;27097;51.738;19.472;2023-06-10T12:16:25;5.60;;;3.15;;
18411;SDS011;27097;51.738;19.472;2023-06-10T12:19:00;6.85;;;3.08;;
18411;SDS011;27097;51.738;19.472;2023-06-10T12:21:28;5.05;;;3.10;;
18411;SDS011;27097;51.738;19.472;2023-06-10T12:24:05;8.43;;;3.50;;
18411;SDS011;27097;51.738;19.472;2023-06-10T12:26:42;10.27;;;3.53;;
18411;SDS011;27097;51.738;19.472;2023-06-10T12:29:17;10.00;;;3.75;;
18411;SDS011;27097;51.738;19.472;2023-06-10T12:31:55;8.02;;;3.28;;
18411;SDS011;27097;51.738;19.472;2023-06-10T12:34:35;10.45;;;3.50;;
18411;SDS011;27097;51.738;19.472;2023-06-10T12:37:03;10.15;;;3.60;;
18411;SDS011;27097;51.738;19.472;2023-06-10T12:39:33;12.05;;;3.38;;
18411;SDS011;27097;51.738;19.472;2023-06-10T12:42:08;7.80;;;3.60;;
18411;SDS011;27097;51.738;19.472;2023-06-10T12:44:38;10.68;;;3.38;;
18411;SDS011;27097;51.738;19.472;2023-06-10T12:47:09;8.23;;;3.25;;
18411;SDS011;27097;51.738;19.472;2023-06-10T12:49:41;8.90;;;3.30;;
18411;SDS011;27097;51.738;19.472;2023-06-10T12:52:07;13.13;;;3.53;;
18411;SDS011;27097;51.738;19.472;2023-06-10T12:54:34;5.40;;;2.95;;
18411;SDS011;27097;51.738;19.472;2023-06-10T12:57:01;9.20;;;3.10;;
18411;SDS011;27097;51.738;19.472;2023-06-10T12:59:29;11.63;;;3.45;;
18411;SDS011;27097;51.738;19.472;2023-06-10T13:01:57;18.63;;;3.28;;
18411;SDS011;27097;51.738;19.472;2023-06-10T13:04:24;14.35;;;3.70;;
18411;SDS011;27097;51.738;19.472;2023-06-10T13:06:53;20.27;;;3.50;;
18411;SDS011;27097;51.738;19.472;2023-06-10T13:09:21;8.20;;;3.22;;
18411;SDS011;27097;51.738;19.472;2023-06-10T13:11:48;9.35;;;3.08;;
18411;SDS011;27097;51.738;19.472;2023-06-10T13:14:15;11.73;;;3.40;;
18411;SDS011;27097;51.738;19.472;2023-06-10T13:16:42;12.05;;;3.33;;
18411;SDS011;27097;51.738;19.472;2023-06-10T13:19:10;10.07;;;3.33;;
18411;SDS011;27097;51.738;19.472;2023-06-10T13:21:37;12.88;;;3.30;;
18411;SDS011;27097;51.738;19.472;2023-06-10T13:24:05;17.63;;;3.08;;
18411;SDS011;27097;51.738;19.472;2023-06-10T13:26:32;13.80;;;3.50;;
18411;SDS011;27097;51.738;19.472;2023-06-10T13:28:59;16.80;;;3.85;;
18411;SDS011;27097;51.738;19.472;2023-06-10T13:31:26;14.05;;;3.90;;
18411;SDS011;27097;51.738;19.472;2023-06-10T13:33:53;21.10;;;4.32;;
18411;SDS011;27097;51.738;19.472;2023-06-10T13:36:20;17.05;;;5.30;;
18411;SDS011;27097;51.738;19.472;2023-06-10T13:38:47;20.05;;;6.05;;
18411;SDS011;27097;51.738;19.472;2023-06-10T13:41:15;20.00;;;6.57;;
18411;SDS011;27097;51.738;19.472;2023-06-10T13:43:42;27.17;;;9.00;;
18411;SDS011;27097;51.738;19.472;2023-06-10T13:46:09;29.40;;;9.30;;
18411;SDS011;27097;51.738;19.472;2023-06-10T13:48:36;35.13;;;10.82;;
18411;SDS011;27097;51.738;19.472;2023-06-10T13:51:03;23.40;;;7.55;;
18411;SDS011;27097;51.738;19.472;2023-06-10T13:53:31;26.52;;;6.30;;
18411;SDS011;27097;51.738;19.472;2023-06-10T13:55:58;18.17;;;5.18;;
18411;SDS011;27097;51.738;19.472;2023-06-10T13:58:26;19.23;;;5.18;;
18411;SDS011;27097;51.738;19.472;2023-06-10T14:00:53;15.57;;;4.78;;
18411;SDS011;27097;51.738;19.472;2023-06-10T14:03:22;13.27;;;4.50;;
18411;SDS011;27097;51.738;19.472;2023-06-10T14:05:49;12.85;;;4.03;;
18411;SDS011;27097;51.738;19.472;2023-06-10T14:08:16;13.85;;;4.90;;
18411;SDS011;27097;51.738;19.472;2023-06-10T14:10:43;10.05;;;3.95;;
18411;SDS011;27097;51.738;19.472;2023-06-10T14:13:10;19.58;;;4.45;;
18411;SDS011;27097;51.738;19.472;2023-06-10T14:15:38;12.43;;;4.35;;
18411;SDS011;27097;51.738;19.472;2023-06-10T14:18:05;10.68;;;4.15;;
18411;SDS011;27097;51.738;19.472;2023-06-10T14:20:32;10.55;;;3.97;;
18411;SDS011;27097;51.738;19.472;2023-06-10T14:22:59;20.80;;;4.82;;
18411;SDS011;27097;51.738;19.472;2023-06-10T14:25:26;15.35;;;3.92;;
18411;SDS011;27097;51.738;19.472;2023-06-10T14:27:52;21.70;;;4.43;;
18411;SDS011;27097;51.738;19.472;2023-06-10T14:30:19;13.23;;;3.72;;
18411;SDS011;27097;51.738;19.472;2023-06-10T14:32:48;15.43;;;3.95;;
18411;SDS011;27097;51.738;19.472;2023-06-10T14:35:14;13.48;;;4.13;;